Time;durP1;ratioP1;P1;durP2;ratioP2;P2;SDS_P1;SDS_P2;PMS_P1;PMS_P2;Temp;Humidity;BMP_temperature;BMP_pressure;BME280_temperature;BME280_humidity;BME280_pressure;Samples;Min_cycle;Max_cycle;Signal;HPM_P1;HPM_P2
2021/11/02 00:01:38;;;;;;;6.55;4.30;;;12.50;99.40;;;;;;5085785;28;20028;-62
2021/11/02 00:04:04;;;;;;;6.72;4.03;;;12.50;99.40;;;;;;5071191;28;20025;-62
2021/11/02 00:06:29;;;;;;;8.65;3.95;;;12.50;99.40;;;;;;5072432;28;20064;-62
2021/11/02 00:08:55;;;;;;;7.28;3.97;;;12.50;99.40;;;;;;5078372;28;20068;-62
2021/11/02 00:11:20;;;;;;;8.07;3.88;;;12.50;99.40;;;;;;5071012;28;20078;-62
2021/11/02 00:13:50;;;;;;;5.30;3.45;;;12.50;99.40;;;;;;5091642;28;20028;-62
2021/11/02 00:16:20;;;;;;;6.78;4.10;;;12.50;99.40;;;;;;5089766;28;20035;-62
2021/11/02 00:18:50;;;;;;;6.85;4.00;;;12.50;99.50;;;;;;5070835;28;20580;-62
2021/11/02 00:21:16;;;;;;;7.75;4.30;;;12.50;99.50;;;;;;5070424;28;20032;-62
2021/11/02 00:23:42;;;;;;;7.43;4.15;;;12.50;99.50;;;;;;5071548;28;20387;-62
2021/11/02 00:26:10;;;;;;;8.45;4.80;;;12.50;99.50;;;;;;5070956;28;20033;-62
2021/11/02 00:28:36;;;;;;;6.85;4.25;;;12.50;99.50;;;;;;5071019;28;20025;-62
2021/11/02 00:31:02;;;;;;;7.57;4.47;;;12.50;99.60;;;;;;5070903;28;20086;-62
2021/11/02 00:33:31;;;;;;;10.25;4.15;;;12.50;99.60;;;;;;5072081;28;20060;-62
2021/11/02 00:35:57;;;;;;;6.75;3.80;;;12.40;99.60;;;;;;5074736;28;20067;-62
2021/11/02 00:38:24;;;;;;;8.05;4.50;;;12.50;99.60;;;;;;5105093;28;20580;-62
2021/11/02 00:40:49;;;;;;;8.27;4.55;;;12.50;99.60;;;;;;5077148;28;20072;-62
2021/11/02 00:43:15;;;;;;;7.47;4.40;;;12.50;99.60;;;;;;5090775;28;20113;-62
2021/11/02 00:45:41;;;;;;;9.25;4.40;;;12.50;99.70;;;;;;5076617;28;20086;-62
2021/11/02 00:48:12;;;;;;;8.30;4.07;;;12.40;99.70;;;;;;5089526;28;20047;-62
2021/11/02 00:50:40;;;;;;;5.82;4.47;;;12.40;99.70;;;;;;5078207;28;20090;-62
2021/11/02 00:53:07;;;;;;;9.32;4.78;;;12.40;99.70;;;;;;5074427;28;20024;-62
2021/11/02 00:55:34;;;;;;;7.80;4.72;;;12.40;99.70;;;;;;5074314;28;20080;-62
2021/11/02 00:58:02;;;;;;;8.18;5.03;;;12.40;99.70;;;;;;5097654;28;20430;-62
2021/11/02 01:00:28;;;;;;;10.05;4.68;;;12.40;99.70;;;;;;5080908;28;20036;-62
2021/11/02 01:02:54;;;;;;;7.80;5.60;;;12.40;99.70;;;;;;5087337;28;20055;-62
2021/11/02 01:05:20;;;;;;;8.73;4.93;;;12.40;99.70;;;;;;5085122;28;20083;-62
2021/11/02 01:07:45;;;;;;;7.15;4.68;;;12.40;99.80;;;;;;5074661;28;20024;-62
2021/11/02 01:10:15;;;;;;;10.25;5.13;;;12.40;99.80;;;;;;5082568;28;20024;-61
2021/11/02 01:12:42;;;;;;;10.05;5.53;;;12.40;99.80;;;;;;5092785;28;20028;-62
2021/11/02 01:15:08;;;;;;;8.27;5.05;;;12.40;99.80;;;;;;5093999;28;20036;-62
2021/11/02 01:17:34;;;;;;;9.18;5.32;;;12.40;99.90;;;;;;5092516;28;20032;-62
2021/11/02 01:20:00;;;;;;;11.10;5.00;;;12.40;99.90;;;;;;5093932;28;20384;-62
2021/11/02 01:22:26;;;;;;;7.95;5.55;;;12.40;99.90;;;;;;5092598;28;20021;-62
2021/11/02 01:24:51;;;;;;;8.55;5.47;;;12.40;99.80;;;;;;5088111;28;20040;-62
2021/11/02 01:27:17;;;;;;;9.63;5.78;;;12.40;99.90;;;;;;5074375;28;20028;-62
2021/11/02 01:29:42;;;;;;;8.85;5.60;;;12.30;99.90;;;;;;5077597;28;20436;-62
2021/11/02 01:32:09;;;;;;;11.65;5.32;;;12.30;99.90;;;;;;5091276;28;20020;-62
2021/11/02 01:34:35;;;;;;;9.98;5.68;;;12.30;99.90;;;;;;5094397;28;20028;-62
2021/11/02 01:37:00;;;;;;;8.90;5.95;;;12.30;99.90;;;;;;5090587;28;20119;-62
2021/11/02 01:39:27;;;;;;;10.57;5.55;;;12.30;99.90;;;;;;5093406;28;20494;-61
2021/11/02 01:41:52;;;;;;;9.15;5.85;;;12.30;99.90;;;;;;5090816;28;20373;-62
2021/11/02 01:44:18;;;;;;;12.13;5.72;;;12.30;99.90;;;;;;5093769;28;20032;-62
2021/11/02 01:46:44;;;;;;;10.07;6.30;;;12.30;99.90;;;;;;5090313;28;20036;-62
2021/11/02 01:49:10;;;;;;;7.15;5.43;;;12.30;99.90;;;;;;5094134;28;20550;-62
2021/11/02 01:51:35;;;;;;;12.02;6.00;;;12.30;99.90;;;;;;5091349;28;20052;-62
2021/11/02 01:54:04;;;;;;;11.77;6.68;;;12.30;99.90;;;;;;5093730;28;20079;-62
2021/11/02 01:56:31;;;;;;;8.88;5.95;;;12.30;99.90;;;;;;5086176;28;20382;-62
2021/11/02 01:58:57;;;;;;;11.93;5.75;;;12.30;99.90;;;;;;5073510;28;20518;-63
2021/11/02 02:01:53;;;;;;;11.27;6.40;;;12.30;99.90;;;;;;5083852;28;20056;-62
2021/11/02 02:04:27;;;;;;;9.73;6.03;;;12.30;99.90;;;;;;5073420;28;20527;-62
2021/11/02 02:07:07;;;;;;;10.20;6.63;;;12.30;99.90;;;;;;5077749;28;20040;-62
2021/11/02 02:09:47;;;;;;;11.60;6.25;;;12.30;99.90;;;;;;5092306;28;20429;-62
2021/11/02 02:12:47;;;;;;;10.07;6.20;;;12.30;99.90;;;;;;5090517;28;20028;-61
2021/11/02 02:15:24;;;;;;;12.30;7.32;;;12.30;99.90;;;;;;5093425;28;20077;-62
2021/11/02 02:18:13;;;;;;;9.10;6.18;;;12.30;99.90;;;;;;5083059;28;20024;-62
2021/11/02 02:21:11;;;;;;;9.43;6.15;;;12.30;99.90;;;;;;5072598;28;20117;-62
2021/11/02 02:24:00;;;;;;;9.73;6.22;;;12.30;99.90;;;;;;5079607;28;20099;-62
2021/11/02 02:26:42;;;;;;;9.38;6.35;;;12.20;99.90;;;;;;5073597;28;20506;-62
2021/11/02 02:29:09;;;;;;;10.00;6.68;;;12.20;99.90;;;;;;5087331;28;20064;-62
2021/11/02 02:31:38;;;;;;;11.02;7.10;;;12.20;99.90;;;;;;5083219;28;20028;-62
2021/11/02 02:34:11;;;;;;;8.85;6.55;;;12.30;99.90;;;;;;5076351;28;20028;-62
2021/11/02 02:36:38;;;;;;;8.18;5.72;;;12.30;99.90;;;;;;5080397;28;20110;-62
2021/11/02 02:39:04;;;;;;;9.55;6.32;;;12.30;99.90;;;;;;5072828;28;20031;-61
2021/11/02 02:41:31;;;;;;;9.85;6.10;;;12.30;99.90;;;;;;5072908;28;20036;-62
2021/11/02 02:43:58;;;;;;;10.15;6.47;;;12.20;99.90;;;;;;5072946;28;20111;-61
2021/11/02 02:46:24;;;;;;;8.63;6.13;;;12.20;99.90;;;;;;5077853;28;20032;-61
2021/11/02 02:48:53;;;;;;;16.65;7.68;;;12.30;99.90;;;;;;5087859;28;20495;-62
2021/11/02 02:51:19;;;;;;;10.20;6.15;;;12.20;99.90;;;;;;5072672;28;20040;-62
2021/11/02 02:53:46;;;;;;;8.95;6.10;;;12.20;99.90;;;;;;5070641;28;20474;-61
2021/11/02 02:56:12;;;;;;;11.48;6.10;;;12.20;99.90;;;;;;5071567;28;20036;-61
2021/11/02 02:58:44;;;;;;;9.05;6.43;;;12.20;99.90;;;;;;5071073;28;20039;-62
2021/11/02 03:01:12;;;;;;;11.60;6.57;;;12.20;99.90;;;;;;5083202;28;20029;-61
2021/11/02 03:03:52;;;;;;;10.65;6.32;;;12.20;99.90;;;;;;5082633;28;20028;-61
2021/11/02 03:06:20;;;;;;;10.55;6.07;;;12.20;99.90;;;;;;5084685;28;20036;-62
2021/11/02 03:08:47;;;;;;;13.90;6.50;;;12.20;99.90;;;;;;5071158;28;20044;-62
2021/11/02 03:11:14;;;;;;;10.23;7.25;;;12.20;99.90;;;;;;5072422;28;20460;-62
2021/11/02 03:13:45;;;;;;;9.10;6.00;;;12.20;99.90;;;;;;5072514;28;20056;-62
2021/11/02 03:16:13;;;;;;;11.43;6.05;;;12.30;99.90;;;;;;5077634;28;20115;-62
2021/11/02 03:49:17;;;;;;;9.30;6.85;;;12.20;99.90;;;;;;5071998;28;20024;-61
2021/11/02 03:54:35;;;;;;;11.18;6.95;;;12.20;99.90;;;;;;5091647;28;20397;-61
2021/11/02 03:57:17;;;;;;;10.73;6.82;;;12.20;99.90;;;;;;5087542;28;20503;-62
2021/11/02 04:00:11;;;;;;;12.02;7.10;;;12.20;99.90;;;;;;5076966;28;20066;-62
2021/11/02 04:23:03;;;;;;;11.88;7.68;;;12.20;99.90;;;;;;5089489;28;20064;-62
2021/11/02 04:25:34;;;;;;;12.25;7.47;;;12.10;99.90;;;;;;5097529;28;20469;-62
2021/11/02 04:27:56;;;;;;;11.52;7.57;;;12.10;99.90;;;;;;5089262;28;20458;-62
2021/11/02 04:30:38;;;;;;;12.95;8.43;;;12.10;99.90;;;;;;5077648;28;20545;-62
2021/11/02 04:42:25;;;;;;;;;;;12.10;99.90;;;;;;5098006;28;20034;-62
2021/11/02 04:47:26;;;;;;;17.13;8.70;;;12.10;99.90;;;;;;5048932;28;20604;-61
2021/11/02 05:06:37;;;;;;;;;;;12.10;99.90;;;;;;5078046;28;20036;-62
2021/11/02 05:12:21;;;;;;;14.32;9.02;;;12.10;99.90;;;;;;5085857;28;20085;-62
2021/11/02 05:20:46;;;;;;;14.35;8.82;;;12.10;99.90;;;;;;5086542;28;20031;-61
2021/11/02 05:47:53;;;;;;;13.73;8.07;;;12.10;99.90;;;;;;5087818;28;20095;-60
2021/11/02 06:01:05;;;;;;;12.32;9.38;;;12.10;99.90;;;;;;5080843;28;20301;-62
2021/11/02 06:06:08;;;;;;;15.63;9.93;;;12.10;99.90;;;;;;5103747;28;20114;-62
2021/11/02 06:28:12;;;;;;;16.00;10.77;;;12.10;99.90;;;;;;5073404;28;20036;-62
2021/11/02 06:31:15;;;;;;;17.52;10.20;;;12.10;99.90;;;;;;5083321;28;20020;-61
2021/11/02 06:44:19;;;;;;;14.80;9.77;;;12.10;99.90;;;;;;5086281;28;20118;-60
2021/11/02 06:47:16;;;;;;;15.68;10.38;;;12.20;99.90;;;;;;5071740;28;20044;-61
2021/11/02 06:53:10;;;;;;;15.10;9.80;;;12.20;99.90;;;;;;5073637;28;20040;-61
2021/11/02 06:59:20;;;;;;;20.45;11.40;;;12.20;99.90;;;;;;5024069;28;20091;-60
2021/11/02 07:17:27;;;;;;;14.63;9.25;;;12.20;99.90;;;;;;5076186;28;20051;-60
2021/11/02 07:19:59;;;;;;;19.90;10.95;;;12.30;99.90;;;;;;5071089;28;20086;-61
2021/11/02 07:28:11;;;;;;;15.55;9.35;;;12.30;99.90;;;;;;5077521;28;20037;-61
2021/11/02 08:46:02;;;;;;;16.92;11.52;;;12.70;99.60;;;;;;5071120;28;21483;-61
2021/11/02 08:48:28;;;;;;;20.80;12.68;;;12.70;99.60;;;;;;5070560;28;20028;-60
2021/11/02 08:50:56;;;;;;;17.48;11.32;;;12.70;99.60;;;;;;5082835;28;20416;-60
2021/11/02 08:53:24;;;;;;;18.42;11.15;;;12.70;99.60;;;;;;5071930;28;20033;-60
2021/11/02 08:55:51;;;;;;;16.83;11.02;;;12.70;99.60;;;;;;5075707;28;20044;-61
2021/11/02 08:58:26;;;;;;;16.75;11.10;;;12.70;99.50;;;;;;5079896;28;20568;-61
2021/11/02 09:01:02;;;;;;;16.20;9.88;;;12.80;99.60;;;;;;5087121;28;20032;-61
2021/11/02 09:03:31;;;;;;;15.32;10.65;;;12.80;99.60;;;;;;5074249;28;20045;-61
2021/11/02 09:06:07;;;;;;;19.48;10.52;;;12.90;99.50;;;;;;5075677;28;20036;-61
2021/11/02 09:08:45;;;;;;;18.25;11.52;;;13.00;99.40;;;;;;5084127;28;20465;-61
2021/11/02 09:11:14;;;;;;;17.88;10.82;;;13.00;99.30;;;;;;5092045;28;20426;-60
2021/11/02 09:13:46;;;;;;;20.88;12.23;;;13.00;99.20;;;;;;5083916;28;20028;-61
2021/11/02 09:16:13;;;;;;;16.88;11.00;;;13.10;99.20;;;;;;5079461;28;20415;-61
2021/11/02 09:18:42;;;;;;;19.08;12.55;;;13.10;99.20;;;;;;5076124;28;20039;-61
2021/11/02 09:21:08;;;;;;;20.80;13.30;;;13.20;99.10;;;;;;5077579;28;20032;-62
2021/11/02 09:23:34;;;;;;;20.65;12.82;;;13.20;99.00;;;;;;5073669;28;20025;-62
2021/11/02 09:26:02;;;;;;;17.45;12.27;;;13.30;98.90;;;;;;5075245;28;20471;-62
2021/11/02 09:28:28;;;;;;;25.05;14.65;;;13.30;98.90;;;;;;5072578;28;20521;-62
2021/11/02 09:30:54;;;;;;;23.92;14.88;;;13.30;98.80;;;;;;5077499;28;20032;-62
2021/11/02 09:33:21;;;;;;;23.60;14.43;;;13.40;98.70;;;;;;5077425;28;20032;-63
2021/11/02 09:35:59;;;;;;;22.27;14.45;;;13.40;98.70;;;;;;5085751;28;20031;-63
2021/11/02 09:38:40;;;;;;;24.83;16.23;;;13.40;98.60;;;;;;5075761;28;20350;-63
2021/11/02 09:41:32;;;;;;;22.10;14.95;;;13.40;98.60;;;;;;5082921;28;20114;-63
2021/11/02 09:44:18;;;;;;;23.05;14.80;;;13.50;98.60;;;;;;5073922;28;20425;-63
2021/11/02 09:47:11;;;;;;;24.05;15.50;;;13.50;98.40;;;;;;5089627;28;20499;-63
2021/11/02 09:50:13;;;;;;;23.58;14.70;;;13.50;98.40;;;;;;5078544;28;20464;-63
2021/11/02 09:52:54;;;;;;;24.70;14.88;;;13.50;98.40;;;;;;5076315;28;20118;-63
2021/11/02 09:55:38;;;;;;;24.55;16.10;;;13.50;98.40;;;;;;5078498;28;20730;-63
2021/11/02 09:58:08;;;;;;;;;;;13.50;98.30;;;;;;5075714;28;20049;-63
2021/11/02 10:00:50;;;;;;;23.83;15.40;;;13.50;98.50;;;;;;5081316;28;20303;-63
2021/11/02 10:03:29;;;;;;;22.83;15.18;;;13.50;98.40;;;;;;5092405;28;20081;-63
2021/11/02 10:06:15;;;;;;;26.20;15.70;;;13.50;98.40;;;;;;5072849;28;20036;-63
2021/11/02 10:08:45;;;;;;;24.30;15.68;;;13.60;98.30;;;;;;5075665;28;20425;-63
2021/11/02 10:11:23;;;;;;;22.92;16.17;;;13.60;98.20;;;;;;5083285;28;20035;-63
2021/11/02 10:14:04;;;;;;;26.55;16.05;;;13.60;98.10;;;;;;5077074;28;20442;-63
2021/11/02 10:16:42;;;;;;;26.20;17.27;;;13.60;98.20;;;;;;5080260;28;20032;-64
2021/11/02 10:19:45;;;;;;;22.70;15.18;;;13.60;98.20;;;;;;5091698;28;20472;-63
2021/11/02 10:22:48;;;;;;;21.83;14.30;;;13.70;98.10;;;;;;5091977;28;20040;-64
2021/11/02 10:26:15;;;;;;;19.95;13.95;;;13.70;98.00;;;;;;5091333;28;20391;-63
2021/11/02 10:29:07;;;;;;;22.42;14.88;;;13.80;97.90;;;;;;4983032;28;20568;-63
2021/11/02 10:32:00;;;;;;;23.52;15.90;;;13.80;97.90;;;;;;4981747;28;20030;-64
2021/11/02 10:34:34;;;;;;;20.00;14.73;;;13.70;97.90;;;;;;5065554;28;20556;-63
2021/11/02 10:37:29;;;;;;;23.60;15.32;;;13.80;97.90;;;;;;5094535;28;20042;-64
2021/11/02 10:40:03;;;;;;;25.88;15.02;;;13.80;97.80;;;;;;5092278;28;20496;-63
2021/11/02 10:42:31;;;;;;;20.75;13.85;;;13.80;97.80;;;;;;5072373;28;20082;-64
2021/11/02 10:45:01;;;;;;;19.65;13.95;;;13.90;97.70;;;;;;5076165;28;20078;-64
2021/11/02 10:48:09;;;;;;;19.75;13.50;;;13.90;97.70;;;;;;5088137;28;20140;-64
2021/11/02 10:50:38;;;;;;;19.88;13.65;;;14.00;97.70;;;;;;5010350;28;20029;-64
2021/11/02 10:53:06;;;;;;;22.20;14.13;;;14.00;97.90;;;;;;5009810;28;20026;-64
2021/11/02 10:56:07;;;;;;;20.40;13.43;;;14.10;97.60;;;;;;5040084;28;20251;-64
2021/11/02 10:58:44;;;;;;;21.45;14.07;;;14.20;97.50;;;;;;5071939;28;20020;-64
2021/11/02 11:01:12;;;;;;;19.92;12.88;;;14.20;97.40;;;;;;5090660;28;20028;-64
2021/11/02 11:03:40;;;;;;;17.17;12.40;;;14.30;97.30;;;;;;5091244;28;20394;-64
2021/11/02 11:06:11;;;;;;;14.45;11.68;;;14.40;97.10;;;;;;5072672;28;20036;-64
2021/11/02 11:08:39;;;;;;;16.88;11.63;;;14.50;97.00;;;;;;5085109;28;20105;-64
2021/11/02 11:11:10;;;;;;;14.40;10.18;;;14.60;96.80;;;;;;5090584;28;20035;-64
2021/11/02 11:13:38;;;;;;;14.80;10.02;;;14.60;96.60;;;;;;5090787;28;20024;-64
2021/11/02 11:16:11;;;;;;;13.20;10.38;;;14.70;96.50;;;;;;5080512;28;20036;-64
2021/11/02 11:19:13;;;;;;;15.98;10.00;;;14.70;96.40;;;;;;5070802;28;20051;-64
2021/11/02 11:21:41;;;;;;;13.30;9.60;;;14.80;96.40;;;;;;5079187;28;20582;-64
2021/11/02 11:24:13;;;;;;;16.20;9.57;;;14.80;96.30;;;;;;5087173;28;20161;-64
2021/11/02 11:26:49;;;;;;;15.73;10.25;;;14.80;96.20;;;;;;5071285;28;20115;-64
2021/11/02 11:29:20;;;;;;;12.82;9.77;;;14.70;96.20;;;;;;5071023;28;20154;-64
2021/11/02 11:31:48;;;;;;;17.30;9.95;;;14.70;96.20;;;;;;5073765;28;20020;-64
2021/11/02 11:34:17;;;;;;;13.50;9.23;;;14.80;96.20;;;;;;5081768;28;20093;-64
2021/11/02 11:36:49;;;;;;;14.95;9.13;;;14.80;96.20;;;;;;5075598;28;20037;-64
2021/11/02 11:39:19;;;;;;;12.73;9.27;;;14.90;96.20;;;;;;5070628;28;20086;-64
2021/11/02 11:41:50;;;;;;;11.63;8.30;;;15.00;96.10;;;;;;5070454;28;20037;-62
2021/11/02 11:44:17;;;;;;;11.32;7.43;;;15.00;96.10;;;;;;5070552;28;20032;-63
2021/11/02 11:46:43;;;;;;;10.02;8.13;;;15.10;95.90;;;;;;5069411;28;20488;-63
2021/11/02 11:49:20;;;;;;;12.38;7.47;;;15.20;95.70;;;;;;5075192;28;20024;-64
2021/11/02 11:51:53;;;;;;;11.07;8.77;;;15.30;95.40;;;;;;5072870;28;20392;-63
2021/11/02 11:54:19;;;;;;;9.48;7.50;;;15.30;95.20;;;;;;5073588;28;20036;-63
2021/11/02 11:56:45;;;;;;;17.17;7.65;;;15.30;95.20;;;;;;5086484;28;20023;-63
2021/11/02 11:59:17;;;;;;;13.80;7.68;;;15.30;95.10;;;;;;5086200;28;20110;-63
2021/11/02 12:01:54;;;;;;;9.98;7.93;;;15.20;95.10;;;;;;5086262;28;20128;-63
2021/11/02 12:04:52;;;;;;;12.60;8.02;;;15.20;95.00;;;;;;5073598;28;20035;-64
2021/11/02 12:07:32;;;;;;;11.38;7.88;;;15.20;94.90;;;;;;5090185;28;20039;-64
2021/11/02 12:10:04;;;;;;;9.80;7.70;;;15.20;94.90;;;;;;5071320;28;20400;-63
2021/11/02 12:12:33;;;;;;;13.73;8.43;;;15.20;94.80;;;;;;5073957;28;20103;-64
2021/11/02 12:15:01;;;;;;;8.98;6.95;;;15.20;94.80;;;;;;5070728;28;20381;-64
2021/11/02 12:17:29;;;;;;;16.05;7.50;;;15.30;94.80;;;;;;5070796;28;20032;-64
2021/11/02 12:20:11;;;;;;;10.32;7.28;;;15.20;94.70;;;;;;5069947;28;20020;-63
2021/11/02 12:22:49;;;;;;;12.27;6.55;;;15.30;94.60;;;;;;5090968;28;20032;-64
2021/11/02 12:25:37;;;;;;;11.75;7.65;;;15.30;94.50;;;;;;5089770;28;20493;-64
2021/11/02 12:28:37;;;;;;;10.70;7.05;;;15.30;94.40;;;;;;5089652;28;20024;-63
2021/11/02 12:31:25;;;;;;;8.88;6.85;;;15.20;94.40;;;;;;5075906;28;20028;-64
2021/11/02 12:34:13;;;;;;;10.88;7.88;;;15.20;94.40;;;;;;5086876;28;20021;-63
2021/11/02 12:36:59;;;;;;;10.75;6.30;;;15.20;94.30;;;;;;5081227;28;20028;-63
2021/11/02 12:39:47;;;;;;;17.88;9.73;;;15.30;94.20;;;;;;5079275;28;20025;-63
2021/11/02 12:42:36;;;;;;;13.10;7.32;;;15.30;94.10;;;;;;5083967;28;20032;-63
2021/11/02 12:45:11;;;;;;;12.43;7.28;;;15.30;93.90;;;;;;5073469;28;20066;-63
2021/11/02 12:47:38;;;;;;;10.15;7.47;;;15.30;93.90;;;;;;5073674;28;20041;-63
2021/11/02 12:50:06;;;;;;;9.65;7.93;;;15.30;93.90;;;;;;5083337;28;20017;-63
2021/11/02 12:52:34;;;;;;;9.85;7.10;;;15.20;94.00;;;;;;5074926;28;20381;-63
2021/11/02 12:55:04;;;;;;;11.70;7.30;;;15.20;94.10;;;;;;5072805;28;20052;-63
2021/11/02 12:57:42;;;;;;;12.50;7.28;;;15.20;94.00;;;;;;5074853;28;20024;-64
2021/11/02 13:00:12;;;;;;;12.90;7.47;;;15.20;94.00;;;;;;5082100;28;20111;-64
2021/11/02 13:02:50;;;;;;;15.35;7.90;;;15.20;94.00;;;;;;5082630;28;20032;-63
2021/11/02 13:05:20;;;;;;;10.57;7.30;;;15.30;93.90;;;;;;5081399;28;20090;-64
2021/11/02 13:08:02;;;;;;;10.07;7.15;;;15.30;94.20;;;;;;5083674;28;20504;-64
2021/11/02 13:10:31;;;;;;;9.10;6.78;;;15.40;93.90;;;;;;5071378;28;20020;-63
2021/11/02 13:13:03;;;;;;;11.38;7.93;;;15.40;93.80;;;;;;5072926;28;20040;-64
2021/11/02 13:15:31;;;;;;;9.32;7.18;;;15.40;93.80;;;;;;5072677;28;20024;-62
2021/11/02 13:17:59;;;;;;;11.43;7.80;;;15.40;93.80;;;;;;5080798;28;20385;-63
2021/11/02 13:20:36;;;;;;;12.30;7.63;;;15.40;93.70;;;;;;5072064;28;20024;-64
2021/11/02 13:23:03;;;;;;;12.88;6.82;;;15.50;93.60;;;;;;5072665;28;20074;-63
2021/11/02 13:25:40;;;;;;;9.27;6.82;;;15.50;93.50;;;;;;5072095;28;20033;-63
2021/11/02 13:28:08;;;;;;;11.10;6.63;;;15.50;93.40;;;;;;5074758;28;20024;-63
2021/11/02 13:30:41;;;;;;;8.77;6.28;;;15.50;93.40;;;;;;5076533;28;20031;-63
2021/11/02 13:33:16;;;;;;;10.80;6.38;;;15.50;93.40;;;;;;5087421;28;20399;-63
2021/11/02 13:35:56;;;;;;;11.13;6.65;;;15.50;93.30;;;;;;5073021;28;20044;-63
2021/11/02 13:38:36;;;;;;;10.05;6.30;;;15.50;93.30;;;;;;5073855;28;20405;-63
2021/11/02 13:41:23;;;;;;;12.65;6.78;;;15.50;93.20;;;;;;5071635;28;20071;-63
2021/11/02 13:43:55;;;;;;;12.73;6.38;;;15.50;93.20;;;;;;5073189;28;20369;-63
2021/11/02 13:46:26;;;;;;;9.57;6.78;;;15.50;93.20;;;;;;5075117;28;20048;-63
2021/11/02 13:48:54;;;;;;;13.20;7.00;;;15.40;93.20;;;;;;5072270;28;20029;-63
2021/11/02 13:51:20;;;;;;;7.22;6.13;;;15.40;93.10;;;;;;5075158;28;20487;-63
2021/11/02 13:53:46;;;;;;;10.20;7.20;;;15.40;93.10;;;;;;5074957;28;20044;-61
2021/11/02 13:56:19;;;;;;;9.90;6.38;;;15.30;93.10;;;;;;5078078;28;20055;-62
2021/11/02 13:58:45;;;;;;;12.18;7.28;;;15.30;93.10;;;;;;5080847;28;20028;-62
2021/11/02 14:01:35;;;;;;;9.00;6.60;;;15.30;93.10;;;;;;5081740;28;20039;-62
2021/11/02 14:04:28;;;;;;;10.38;6.28;;;15.30;93.10;;;;;;5073145;28;20554;-61
2021/11/02 14:07:14;;;;;;;8.98;6.10;;;15.30;93.10;;;;;;5079032;28;20078;-61
2021/11/02 14:09:44;;;;;;;9.52;6.43;;;15.30;93.10;;;;;;5073116;28;20036;-61
2021/11/02 14:12:27;;;;;;;8.75;6.20;;;15.20;93.10;;;;;;5075271;28;20107;-62
2021/11/02 14:15:14;;;;;;;12.13;6.38;;;15.20;93.10;;;;;;5072337;28;20029;-62
2021/11/02 14:17:45;;;;;;;7.05;5.88;;;15.20;93.10;;;;;;5076178;28;20039;-61
2021/11/02 14:20:30;;;;;;;11.25;6.00;;;15.20;93.10;;;;;;5071681;28;20029;-62
2021/11/02 14:22:55;;;;;;;8.18;5.55;;;15.20;93.20;;;;;;5071605;28;20041;-62
2021/11/02 14:25:30;;;;;;;7.97;5.32;;;15.20;93.20;;;;;;5070416;28;20028;-62
2021/11/02 14:27:55;;;;;;;7.53;4.97;;;15.20;93.00;;;;;;5077478;28;20028;-62
2021/11/02 14:30:37;;;;;;;7.38;5.32;;;15.20;93.00;;;;;;5071222;28;20492;-61
2021/11/02 14:33:15;;;;;;;7.28;5.05;;;15.30;92.90;;;;;;5072507;28;20042;-61
2021/11/02 14:35:46;;;;;;;8.70;4.95;;;15.30;92.70;;;;;;5071830;28;20149;-62
2021/11/02 14:38:13;;;;;;;8.27;4.57;;;15.30;92.60;;;;;;5081773;28;20103;-62
2021/11/02 14:40:47;;;;;;;9.38;4.30;;;15.30;92.50;;;;;;5085466;28;20046;-62
2021/11/02 14:43:12;;;;;;;7.32;4.40;;;15.30;92.30;;;;;;5078515;28;20363;-62
2021/11/02 14:45:43;;;;;;;5.97;4.50;;;15.40;92.40;;;;;;5089660;28;20340;-62
2021/11/02 14:48:27;;;;;;;7.22;4.38;;;15.40;92.20;;;;;;5080662;28;20060;-63
2021/11/02 14:50:58;;;;;;;7.57;4.30;;;15.40;92.10;;;;;;5086939;28;20103;-62
2021/11/02 14:53:34;;;;;;;8.30;4.95;;;15.40;92.00;;;;;;5073121;28;20055;-63
2021/11/02 14:56:07;;;;;;;6.43;4.63;;;15.40;91.90;;;;;;5076791;28;20037;-62
2021/11/02 14:58:38;;;;;;;7.68;4.63;;;15.40;91.80;;;;;;5079167;28;20055;-63
2021/11/02 15:01:10;;;;;;;8.35;4.57;;;15.40;91.80;;;;;;5070806;28;20032;-63
2021/11/02 15:03:37;;;;;;;9.13;5.35;;;15.40;91.80;;;;;;5074995;28;20488;-63
2021/11/02 15:06:12;;;;;;;7.38;4.45;;;15.40;91.80;;;;;;5071399;28;20205;-63
2021/11/02 15:08:41;;;;;;;6.38;4.60;;;15.30;91.80;;;;;;5071099;28;20029;-62
2021/11/02 15:11:14;;;;;;;7.88;4.53;;;15.30;91.80;;;;;;5071388;28;20049;-62
2021/11/02 15:13:45;;;;;;;8.15;4.97;;;15.30;91.80;;;;;;5079557;28;20579;-62
2021/11/02 15:16:11;;;;;;;6.57;5.10;;;15.30;91.80;;;;;;5073604;28;20040;-61
2021/11/02 15:18:40;;;;;;;7.45;4.85;;;15.20;91.70;;;;;;5075296;28;20490;-62
2021/11/02 15:21:06;;;;;;;6.88;4.72;;;15.20;91.70;;;;;;5071303;28;20117;-62
2021/11/02 15:23:39;;;;;;;7.65;5.05;;;15.20;91.80;;;;;;5076629;28;20435;-62
2021/11/02 15:26:05;;;;;;;7.90;5.55;;;15.10;91.80;;;;;;5071887;28;20028;-62
2021/11/02 15:28:40;;;;;;;6.43;4.55;;;15.10;91.90;;;;;;5077857;28;20039;-63
2021/11/02 15:31:05;;;;;;;8.13;5.05;;;15.00;92.00;;;;;;5085040;28;20081;-62
2021/11/02 15:33:33;;;;;;;7.82;5.07;;;15.00;92.10;;;;;;5070375;28;20044;-63
2021/11/02 15:36:13;;;;;;;8.60;5.40;;;14.90;92.00;;;;;;5071746;28;20020;-63
2021/11/02 15:38:40;;;;;;;9.20;4.93;;;14.90;92.20;;;;;;5070851;28;20433;-62
2021/11/02 15:41:21;;;;;;;9.70;5.15;;;14.80;92.20;;;;;;5083701;28;20028;-62
2021/11/02 15:43:55;;;;;;;9.35;5.72;;;14.70;92.20;;;;;;5075827;28;20416;-62
2021/11/02 15:46:35;;;;;;;9.35;5.40;;;14.70;92.40;;;;;;5070270;28;20396;-62
2021/11/02 15:49:06;;;;;;;11.43;6.15;;;14.60;92.40;;;;;;5070181;28;20424;-62
2021/11/02 15:51:34;;;;;;;13.52;6.72;;;14.50;92.60;;;;;;5073535;28;20447;-62
2021/11/02 15:54:08;;;;;;;8.50;6.13;;;14.50;92.70;;;;;;5074936;28;20044;-62
2021/11/02 15:56:34;;;;;;;9.13;5.87;;;14.50;92.80;;;;;;5070792;28;20029;-62
2021/11/02 15:59:02;;;;;;;8.77;5.50;;;14.40;92.80;;;;;;5070074;28;20036;-62
2021/11/02 16:01:35;;;;;;;9.90;6.50;;;14.40;92.90;;;;;;5085390;28;20367;-62
2021/11/02 16:04:22;;;;;;;13.10;6.30;;;14.30;92.90;;;;;;5071003;28;20064;-62
2021/11/02 16:07:08;;;;;;;9.10;5.80;;;14.30;93.00;;;;;;5075083;28;20479;-62
2021/11/02 16:09:54;;;;;;;12.85;6.28;;;14.20;93.00;;;;;;5071826;28;20427;-63
2021/11/02 16:12:39;;;;;;;6.88;5.95;;;14.20;93.10;;;;;;5072054;28;20588;-63
2021/11/02 16:15:10;;;;;;;8.38;6.15;;;14.20;93.20;;;;;;5075885;28;20399;-62
2021/11/02 16:17:51;;;;;;;9.07;5.68;;;14.10;93.40;;;;;;5070952;28;20551;-63
2021/11/02 16:20:19;;;;;;;8.57;5.78;;;14.10;93.30;;;;;;5070137;28;20470;-63
2021/11/02 16:23:07;;;;;;;10.18;6.15;;;14.10;93.30;;;;;;5077041;28;20025;-63
2021/11/02 16:25:37;;;;;;;9.70;5.95;;;14.00;93.40;;;;;;5064852;28;20522;-63
2021/11/02 16:28:06;;;;;;;11.77;6.80;;;14.00;93.50;;;;;;5073929;28;20391;-63
2021/11/02 16:30:42;;;;;;;11.13;6.22;;;13.90;93.50;;;;;;5075645;28;20575;-62
2021/11/02 16:33:09;;;;;;;12.55;6.72;;;13.90;93.60;;;;;;5074962;28;20017;-62
2021/11/02 16:35:45;;;;;;;11.10;6.50;;;13.80;93.60;;;;;;5070850;28;20055;-63
2021/11/02 16:38:21;;;;;;;9.93;6.85;;;13.80;93.70;;;;;;5073489;28;20025;-63
2021/11/02 16:40:57;;;;;;;12.30;7.75;;;13.80;93.90;;;;;;5072827;28;20050;-63
2021/11/02 16:43:37;;;;;;;10.35;6.45;;;13.70;93.90;;;;;;5070944;28;20020;-63
2021/11/02 16:46:06;;;;;;;14.80;9.35;;;13.60;94.00;;;;;;5073515;28;20507;-62
2021/11/02 16:48:42;;;;;;;19.77;10.10;;;13.60;94.00;;;;;;5082496;28;20036;-63
2021/11/02 16:51:09;;;;;;;18.55;11.50;;;13.50;94.10;;;;;;5070682;28;20569;-63
2021/11/02 16:53:35;;;;;;;18.20;11.80;;;13.50;94.10;;;;;;5076152;28;20040;-63
2021/11/02 16:56:07;;;;;;;19.17;12.02;;;13.50;94.20;;;;;;5070726;28;20138;-62
2021/11/02 16:58:34;;;;;;;21.55;13.82;;;13.50;94.40;;;;;;5083624;28;20030;-62
2021/11/02 17:01:15;;;;;;;23.10;13.73;;;13.50;94.40;;;;;;5077570;28;20369;-62
2021/11/02 17:03:42;;;;;;;28.55;14.85;;;13.50;94.40;;;;;;5087582;28;20028;-62
2021/11/02 17:06:31;;;;;;;23.08;14.93;;;13.50;94.50;;;;;;5081591;28;20028;-62
2021/11/02 17:09:17;;;;;;;23.75;14.05;;;13.40;94.50;;;;;;5078290;28;20038;-62
2021/11/02 17:12:09;;;;;;;22.02;14.65;;;13.40;94.60;;;;;;5070224;28;20024;-62
2021/11/02 17:14:55;;;;;;;19.80;13.57;;;13.40;94.70;;;;;;5069675;28;20556;-63
2021/11/02 17:17:41;;;;;;;26.83;14.40;;;13.30;94.70;;;;;;5077765;28;20035;-62
2021/11/02 17:20:13;;;;;;;19.15;13.63;;;13.30;94.80;;;;;;5090623;28;20029;-62
2021/11/02 17:22:39;;;;;;;22.42;12.88;;;13.30;94.80;;;;;;5080215;28;20063;-62
2021/11/02 17:25:06;;;;;;;25.25;13.98;;;13.30;95.10;;;;;;5075216;28;20033;-62
2021/11/02 17:27:32;;;;;;;18.48;11.77;;;13.20;95.00;;;;;;5082182;28;20036;-62
2021/11/02 17:29:58;;;;;;;18.95;11.13;;;13.20;95.00;;;;;;5082403;28;20028;-63
2021/11/02 17:32:24;;;;;;;19.33;12.30;;;13.20;95.10;;;;;;5078245;28;20025;-62
2021/11/02 17:34:50;;;;;;;20.95;12.90;;;13.20;95.30;;;;;;5080736;28;20024;-61